Time;durP1;ratioP1;P1;durP2;ratioP2;P2;SDS_P1;SDS_P2;PMS_P1;PMS_P2;Temp;Humidity;BMP_temperature;BMP_pressure;BME280_temperature;BME280_humidity;BME280_pressure;Samples;Min_cycle;Max_cycle;Signal;HPM_P1;HPM_P2
2020/12/05 00:02:26;;;;;;;22.50;19.53;;;;;;;5.93;57.92;99354.88;6061475;29;20791;-63
2020/12/05 00:05:47;;;;;;;24.97;21.10;;;;;;;5.91;57.64;99378.19;6075779;29;20984;-60
2020/12/05 00:09:07;;;;;;;23.83;21.07;;;;;;;5.84;57.73;99386.03;6066978;29;20229;-61
2020/12/05 00:12:29;;;;;;;26.33;21.33;;;;;;;5.85;57.61;99380.81;6058599;29;20263;-62
2020/12/05 00:15:49;;;;;;;23.43;20.10;;;;;;;5.82;58.17;99380.03;6080406;29;20232;-62
2020/12/05 00:19:11;;;;;;;22.87;20.47;;;;;;;5.91;57.57;99392.81;6071577;29;20526;-63
2020/12/05 00:22:31;;;;;;;27.27;23.10;;;;;;;5.89;57.38;99394.56;6059871;29;20296;-62
2020/12/05 00:25:51;;;;;;;27.83;21.87;;;;;;;5.82;58.05;99400.69;6076534;29;20266;-62
2020/12/05 00:29:12;;;;;;;25.67;21.60;;;;;;;5.76;57.74;99400.75;6070100;29;21160;-62
2020/12/05 00:32:32;;;;;;;28.40;23.90;;;;;;;5.75;58.17;99401.63;6062630;29;20549;-62
2020/12/05 00:35:53;;;;;;;25.40;22.13;;;;;;;5.84;57.68;99412.72;6072254;29;20244;-61
2020/12/05 00:39:14;;;;;;;25.20;22.27;;;;;;;5.81;57.88;99409.31;6069886;29;20232;-63
2020/12/05 00:42:34;;;;;;;24.87;21.27;;;;;;;5.85;57.60;99403.22;6061257;29;20232;-61
2020/12/05 00:45:55;;;;;;;26.30;21.43;;;;;;;5.63;58.22;99403.47;6073011;29;20246;-61
2020/12/05 00:49:15;;;;;;;25.10;21.73;;;;;;;5.73;57.77;99399.06;6067016;29;20225;-61
2020/12/05 00:52:36;;;;;;;23.57;20.60;;;;;;;5.76;57.69;99408.50;6060104;29;20257;-60
2020/12/05 00:55:56;;;;;;;24.93;22.00;;;;;;;5.73;57.83;99423.16;6075302;29;20256;-61
2020/12/05 00:59:16;;;;;;;25.87;21.17;;;;;;;5.70;57.44;99436.13;6072436;29;20244;-62
2020/12/05 01:02:38;;;;;;;25.23;20.63;;;;;;;5.72;57.95;99439.53;6062129;29;20225;-61
2020/12/05 01:05:58;;;;;;;30.97;22.40;;;;;;;5.75;57.71;99430.06;6074134;29;20253;-62
2020/12/05 01:09:18;;;;;;;25.40;21.73;;;;;;;5.69;57.38;99433.56;6069008;29;20228;-61
2020/12/05 01:12:38;;;;;;;24.03;21.30;;;;;;;5.67;57.78;99424.97;6059434;29;20229;-61
2020/12/05 01:15:59;;;;;;;25.53;21.37;;;;;;;5.65;57.73;99409.47;6072521;29;20237;-61
2020/12/05 01:19:20;;;;;;;26.03;21.00;;;;;;;5.62;57.85;99412.13;6068468;29;20241;-61
2020/12/05 01:22:40;;;;;;;26.63;22.57;;;;;;;5.45;58.46;99403.69;6063157;29;20228;-62
2020/12/05 01:26:01;;;;;;;25.57;22.33;;;;;;;5.23;58.68;99423.69;6070667;29;20232;-61
2020/12/05 01:29:21;;;;;;;23.77;21.03;;;;;;;5.41;58.51;99431.28;6071491;29;20263;-61
2020/12/05 01:32:41;;;;;;;24.40;20.20;;;;;;;5.46;58.30;99433.81;6061064;29;20240;-63
2020/12/05 01:36:04;;;;;;;25.33;21.87;;;;;;;5.48;58.14;99424.31;6074055;29;20230;-62
2020/12/05 01:39:24;;;;;;;28.33;22.23;;;;;;;5.32;58.98;99431.38;6075131;29;20264;-62
2020/12/05 01:42:45;;;;;;;26.43;21.40;;;;;;;5.32;58.31;99428.78;6067124;29;20224;-61
2020/12/05 01:46:06;;;;;;;28.10;22.73;;;;;;;5.37;58.65;99426.13;6081122;29;20241;-60
2020/12/05 01:49:26;;;;;;;25.03;22.33;;;;;;;5.34;58.77;99411.53;6070773;29;20237;-61
2020/12/05 01:52:49;;;;;;;24.93;22.10;;;;;;;5.29;58.54;99405.56;6064784;29;20240;-62
2020/12/05 01:56:10;;;;;;;26.87;21.07;;;;;;;5.39;58.36;99383.09;6076435;29;20515;-59
2020/12/05 01:59:30;;;;;;;30.73;23.63;;;;;;;5.26;59.07;99388.38;6076537;29;20244;-62
2020/12/05 02:02:51;;;;;;;26.77;22.50;;;;;;;5.35;58.34;99394.31;6066071;29;20224;-61
2020/12/05 02:06:20;;;;;;;28.03;24.40;;;;;;;5.04;59.88;99404.94;6078738;29;20374;-61
2020/12/05 02:09:46;;;;;;;27.90;22.23;;;;;;;5.24;58.77;99400.47;6073643;29;20320;-62
2020/12/05 02:13:11;;;;;;;28.50;24.60;;;;;;;5.19;59.14;99397.06;6067617;29;20263;-62
2020/12/05 02:16:31;;;;;;;26.17;21.37;;;;;;;5.13;59.36;99404.88;6072343;29;20237;-61
2020/12/05 02:19:53;;;;;;;29.23;23.30;;;;;;;4.99;59.72;99393.81;6074403;29;20222;-62
2020/12/05 02:23:15;;;;;;;30.83;23.67;;;;;;;5.02;59.51;99409.25;6071921;29;20240;-61
2020/12/05 02:26:36;;;;;;;28.47;24.37;;;;;;;5.13;59.54;99399.69;6071499;29;20257;-61
2020/12/05 02:29:56;;;;;;;28.50;23.10;;;;;;;5.16;59.69;99394.53;6084752;29;20629;-62
2020/12/05 02:33:18;;;;;;;30.43;26.60;;;;;;;5.12;59.60;99372.19;6070442;29;20241;-61
2020/12/05 02:36:39;;;;;;;27.67;24.17;;;;;;;5.14;59.54;99367.88;6072155;29;20555;-60
2020/12/05 02:40:02;;;;;;;33.07;27.37;;;;;;;4.99;59.78;99368.03;6064042;29;20229;-62
2020/12/05 02:43:22;;;;;;;28.73;24.73;;;;;;;5.03;59.51;99378.28;6068575;29;20336;-62
2020/12/05 02:46:49;;;;;;;32.87;25.10;;;;;;;4.99;59.73;99376.63;6074838;29;20627;-60
2020/12/05 02:50:09;;;;;;;34.87;28.37;;;;;;;5.09;59.78;99355.00;6067053;29;20556;-61
2020/12/05 02:53:29;;;;;;;27.50;24.17;;;;;;;5.06;59.63;99357.63;6063652;29;20229;-61
2020/12/05 02:56:50;;;;;;;29.27;24.77;;;;;;;5.08;59.31;99347.31;6070419;29;20233;-60
2020/12/05 03:00:11;;;;;;;29.23;23.13;;;;;;;4.91;59.60;99350.03;6068144;29;20230;-60
2020/12/05 03:03:31;;;;;;;30.10;24.93;;;;;;;5.03;59.92;99346.47;6068303;29;20630;-62
2020/12/05 03:06:51;;;;;;;27.97;24.27;;;;;;;4.97;60.05;99355.13;6069710;29;20229;-60
2020/12/05 03:10:14;;;;;;;29.50;24.87;;;;;;;4.93;59.86;99364.63;6067776;29;20598;-60
2020/12/05 03:13:35;;;;;;;31.50;25.17;;;;;;;5.04;59.83;99376.56;6069083;29;20241;-60
2020/12/05 03:16:56;;;;;;;32.23;24.70;;;;;;;5.17;59.60;99388.47;6073961;29;20340;-61
2020/12/05 03:20:16;;;;;;;32.90;24.57;;;;;;;5.13;59.25;99397.97;6067735;29;20237;-61
2020/12/05 03:23:37;;;;;;;31.23;24.57;;;;;;;4.91;60.06;99401.63;6069346;29;20233;-60
2020/12/05 03:26:57;;;;;;;28.97;25.83;;;;;;;5.04;59.72;99405.81;6068279;29;20336;-61
2020/12/05 03:30:19;;;;;;;30.77;24.70;;;;;;;4.96;60.21;99399.00;6066657;29;20249;-61
2020/12/05 03:33:41;;;;;;;32.00;26.37;;;;;;;5.01;59.62;99390.34;6069386;29;20233;-61
2020/12/05 03:37:01;;;;;;;34.47;26.77;;;;;;;4.95;60.41;99400.72;6056043;29;20233;-61
2020/12/05 03:40:21;;;;;;;32.43;26.47;;;;;;;4.96;60.08;99389.53;6078833;29;20623;-61
2020/12/05 03:43:48;;;;;;;29.07;24.63;;;;;;;5.09;60.18;99382.53;6069108;29;20509;-61
2020/12/05 03:47:09;;;;;;;29.93;24.47;;;;;;;5.05;59.56;99380.88;6058316;29;20236;-60
2020/12/05 03:50:30;;;;;;;32.20;28.03;;;;;;;5.04;60.00;99361.06;6080494;29;20628;-61
2020/12/05 03:53:50;;;;;;;33.20;27.47;;;;;;;5.12;59.43;99354.13;6069507;29;20391;-61
2020/12/05 03:57:11;;;;;;;32.70;27.43;;;;;;;5.18;59.76;99359.22;6054226;29;20620;-61
2020/12/05 04:00:31;;;;;;;29.43;25.17;;;;;;;5.10;59.70;99355.88;6076941;29;21736;-62
2020/12/05 04:03:52;;;;;;;35.13;28.57;;;;;;;5.09;59.63;99359.31;6070184;29;20550;-62
2020/12/05 04:07:12;;;;;;;33.53;27.20;;;;;;;5.16;60.00;99344.63;6055428;29;20799;-61
2020/12/05 04:10:32;;;;;;;34.00;26.20;;;;;;;5.31;58.89;99352.19;6074687;29;20312;-61
2020/12/05 04:13:53;;;;;;;34.33;28.40;;;;;;;5.16;59.70;99357.50;6070722;29;20241;-61
2020/12/05 04:17:14;;;;;;;33.10;25.70;;;;;;;5.31;59.27;99354.78;6058338;29;20515;-61
2020/12/05 04:20:36;;;;;;;38.07;27.50;;;;;;;5.33;59.46;99351.31;6076769;29;20238;-61
2020/12/05 04:23:56;;;;;;;32.27;26.50;;;;;;;5.19;59.54;99353.19;6066048;29;20237;-62
2020/12/05 04:27:16;;;;;;;33.57;28.03;;;;;;;5.28;59.25;99352.25;6058762;29;20844;-61
2020/12/05 04:30:37;;;;;;;35.87;29.40;;;;;;;5.27;59.43;99359.13;6074901;29;20559;-61
2020/12/05 04:33:57;;;;;;;32.83;25.27;;;;;;;5.25;59.34;99360.88;6069586;29;20603;-61
2020/12/05 04:37:18;;;;;;;34.40;27.27;;;;;;;5.46;58.75;99382.16;6056944;29;20287;-62
2020/12/05 04:40:39;;;;;;;31.23;26.77;;;;;;;5.18;59.50;99395.38;6074047;29;20245;-61
2020/12/05 04:43:59;;;;;;;31.57;26.20;;;;;;;5.28;59.65;99390.97;6069303;29;20519;-61
2020/12/05 04:47:20;;;;;;;31.27;24.83;;;;;;;5.35;59.23;99402.94;6061146;29;20241;-60
2020/12/05 04:50:45;;;;;;;31.93;27.03;;;;;;;5.43;59.31;99395.97;6074444;29;20245;-60
2020/12/05 04:54:06;;;;;;;37.03;29.87;;;;;;;5.49;58.96;99406.22;6070282;29;20232;-62
2020/12/05 04:57:27;;;;;;;39.30;27.80;;;;;;;5.43;59.14;99401.13;6057245;29;20931;-61
2020/12/05 05:00:51;;;;;;;34.23;29.00;;;;;;;5.44;59.30;99407.13;6073011;29;20534;-60
2020/12/05 05:04:12;;;;;;;34.03;28.50;;;;;;;5.51;58.52;99393.31;6073327;29;20256;-61
2020/12/05 05:07:35;;;;;;;35.27;27.33;;;;;;;5.53;58.90;99396.72;6056409;29;20319;-62
2020/12/05 05:11:16;;;;;;;34.43;28.50;;;;;;;5.51;59.18;99408.78;6072081;29;20232;-62
2020/12/05 05:14:37;;;;;;;36.70;29.13;;;;;;;5.48;58.80;99411.41;6075700;29;20237;-61
2020/12/05 05:17:59;;;;;;;35.33;28.17;;;;;;;5.61;58.35;99418.16;6079630;29;20243;-60
2020/12/05 05:21:34;;;;;;;31.70;26.47;;;;;;;5.67;58.69;99419.81;6074360;29;20233;-62
2020/12/05 05:25:02;;;;;;;32.27;26.60;;;;;;;5.70;58.14;99405.13;6075085;29;20245;-62
2020/12/05 05:28:28;;;;;;;34.87;25.90;;;;;;;5.69;58.63;99393.06;6068288;29;20334;-61
2020/12/05 05:31:51;;;;;;;33.63;26.27;;;;;;;5.77;58.28;99395.56;6072296;29;20229;-61
2020/12/05 05:35:13;;;;;;;30.00;24.70;;;;;;;5.81;58.13;99401.56;6066306;29;20817;-61
2020/12/05 05:38:34;;;;;;;36.70;28.50;;;;;;;5.85;57.72;99421.31;6069715;29;20323;-61
2020/12/05 05:41:55;;;;;;;34.33;27.33;;;;;;;5.69;58.05;99461.97;6070085;29;20233;-61
2020/12/05 05:45:18;;;;;;;35.63;27.50;;;;;;;5.35;59.45;99484.69;6064923;29;20310;-61
2020/12/05 05:48:48;;;;;;;31.73;26.53;;;;;;;5.29;59.33;99481.31;6071379;29;20679;-61
2020/12/05 05:52:08;;;;;;;36.73;31.17;;;;;;;5.31;59.66;99478.69;6057640;29;20296;-60
2020/12/05 05:55:42;;;;;;;36.73;27.73;;;;;;;5.25;59.58;99474.47;6079225;29;20245;-61
2020/12/05 05:59:05;;;;;;;32.37;27.80;;;;;;;5.33;59.74;99464.03;6071178;29;20558;-62
2020/12/05 06:02:30;;;;;;;37.65;31.17;;;;;;;5.25;59.69;99443.50;6058251;29;20752;-62
2020/12/05 06:05:51;;;;;;;31.07;27.83;;;;;;;5.45;59.26;99447.59;6077235;29;20620;-61
2020/12/05 06:09:14;;;;;;;31.20;26.20;;;;;;;5.51;59.23;99427.72;6073137;29;20236;-61
2020/12/05 06:12:36;;;;;;;31.27;26.93;;;;;;;5.53;59.13;99419.97;6060209;29;20220;-60
2020/12/05 06:15:57;;;;;;;35.10;28.07;;;;;;;5.67;59.06;99401.72;6079809;29;20260;-61
2020/12/05 06:19:19;;;;;;;33.63;28.60;;;;;;;5.77;58.06;99410.22;6073675;29;20233;-61
2020/12/05 06:22:47;;;;;;;32.00;27.63;;;;;;;5.80;57.98;99400.72;6061231;29;20634;-61
2020/12/05 06:26:09;;;;;;;35.53;29.40;;;;;;;5.61;59.18;99394.91;6073785;29;20244;-60
2020/12/05 06:29:32;;;;;;;34.60;29.80;;;;;;;5.73;58.77;99414.56;6073532;29;20237;-62
2020/12/05 06:32:55;;;;;;;34.03;28.57;;;;;;;5.58;59.08;99423.31;6065723;29;20237;-62
2020/12/05 06:36:39;;;;;;;36.60;28.70;;;;;;;5.69;58.53;99408.56;6069728;29;20261;-61
2020/12/05 06:40:00;;;;;;;34.93;28.53;;;;;;;5.77;58.27;99382.66;6062496;29;20242;-61
2020/12/05 06:43:21;;;;;;;35.63;28.37;;;;;;;5.70;58.27;99373.28;6066558;29;20611;-61
2020/12/05 06:47:04;;;;;;;33.53;27.83;;;;;;;5.77;58.22;99384.38;6067083;29;20559;-60
2020/12/05 06:50:32;;;;;;;32.50;27.33;;;;;;;5.77;58.26;99386.97;6066389;29;20260;-63
2020/12/05 06:53:53;;;;;;;33.90;27.20;;;;;;;5.83;58.11;99368.81;6072018;29;20232;-61
2020/12/05 06:57:13;;;;;;;33.97;28.90;;;;;;;5.83;58.07;99384.31;6059744;29;20237;-61
2020/12/05 07:00:36;;;;;;;35.15;29.67;;;;;;;5.57;58.74;99394.97;6075509;29;20765;-61
2020/12/05 07:04:20;;;;;;;36.47;28.73;;;;;;;5.70;58.74;99392.22;6072464;29;20232;-62
2020/12/05 07:07:40;;;;;;;38.03;29.70;;;;;;;5.71;58.29;99398.22;6061312;29;20526;-61
2020/12/05 07:11:04;;;;;;;34.10;29.23;;;;;;;5.69;58.42;99398.25;6069692;29;20245;-62
2020/12/05 07:14:26;;;;;;;39.17;30.83;;;;;;;5.73;58.62;99393.91;6069779;29;20241;-62
2020/12/05 07:17:46;;;;;;;35.43;29.57;;;;;;;5.72;58.55;99379.28;6067474;29;21009;-60
2020/12/05 07:21:07;;;;;;;34.13;28.97;;;;;;;5.40;59.63;99393.41;6077247;29;20236;-60
2020/12/05 07:24:27;;;;;;;35.43;29.83;;;;;;;5.53;59.13;99407.06;6078039;29;20678;-62
2020/12/05 07:27:49;;;;;;;32.30;27.37;;;;;;;5.47;58.71;99443.28;6067816;29;20551;-61
2020/12/05 07:31:10;;;;;;;37.23;28.73;;;;;;;5.41;59.75;99444.19;6072430;29;20280;-61
2020/12/05 07:34:30;;;;;;;33.53;28.00;;;;;;;5.50;59.43;99458.72;6073261;29;20619;-62
2020/12/05 07:37:51;;;;;;;35.30;28.97;;;;;;;5.41;59.33;99453.63;6065900;29;20232;-62
2020/12/05 07:41:14;;;;;;;36.30;27.43;;;;;;;5.05;60.67;99491.81;6075684;29;20237;-62
2020/12/05 07:44:35;;;;;;;38.47;29.33;;;;;;;5.08;60.61;99520.19;6069234;29;20229;-61
2020/12/05 07:47:56;;;;;;;38.87;31.23;;;;;;;5.26;59.93;99532.09;6067364;29;20336;-61
2020/12/05 07:51:18;;;;;;;36.23;29.33;;;;;;;5.01;61.09;99526.25;6077726;29;20253;-61
2020/12/05 07:54:39;;;;;;;35.80;29.00;;;;;;;5.12;60.42;99514.16;6076951;29;20229;-61
2020/12/05 07:57:59;;;;;;;33.13;28.63;;;;;;;5.21;60.23;99498.56;6072043;29;20587;-61
2020/12/05 08:01:34;;;;;;;32.97;28.80;;;;;;;5.37;60.11;99499.31;6076823;29;20615;-62
2020/12/05 08:05:02;;;;;;;37.17;29.87;;;;;;;5.39;59.77;99500.16;6071551;29;20234;-61
2020/12/05 08:08:28;;;;;;;35.10;29.23;;;;;;;5.46;59.40;99508.69;6065743;29;20232;-62
2020/12/05 08:11:52;;;;;;;37.40;30.43;;;;;;;5.35;60.00;99520.81;6071463;29;20233;-61
2020/12/05 08:15:14;;;;;;;33.57;28.30;;;;;;;5.19;60.57;99515.78;6069527;29;20360;-61
2020/12/05 08:18:36;;;;;;;36.20;28.93;;;;;;;5.27;60.60;99528.63;6072603;29;20315;-62
2020/12/05 08:22:07;;;;;;;35.17;27.77;;;;;;;5.19;60.87;99533.84;6062722;29;20233;-63
2020/12/05 08:25:28;;;;;;;35.13;29.23;;;;;;;5.32;60.10;99543.22;6052426;29;20241;-63
2020/12/05 08:28:49;;;;;;;38.63;30.37;;;;;;;5.31;60.25;99553.53;6065431;29;20324;-62
2020/12/05 08:32:17;;;;;;;37.17;30.00;;;;;;;5.41;60.54;99556.91;6062499;29;20268;-66
2020/12/05 08:35:38;;;;;;;44.40;33.93;;;;;;;5.52;60.20;99560.28;6080217;29;20332;-66
2020/12/05 08:39:04;;;;;;;40.80;32.13;;;;;;;5.13;61.02;99578.63;6075623;29;20816;-66
2020/12/05 08:42:26;;;;;;;35.43;29.53;;;;;;;4.89;62.14;99578.81;6059834;29;20237;-66
2020/12/05 08:45:46;;;;;;;37.37;30.70;;;;;;;4.85;62.28;99588.28;6080832;29;20236;-66
2020/12/05 08:49:17;;;;;;;35.43;29.60;;;;;;;5.10;61.32;99593.31;6066822;29;20333;-66
2020/12/05 08:52:40;;;;;;;38.33;31.00;;;;;;;4.71;62.91;99610.69;6061595;29;20243;-66
2020/12/05 08:56:01;;;;;;;35.50;29.93;;;;;;;4.63;62.61;99609.88;6079913;29;20225;-66
2020/12/05 08:59:25;;;;;;;38.17;31.87;;;;;;;4.76;62.67;99605.53;6073342;29;20261;-66
2020/12/05 09:02:45;;;;;;;35.87;29.27;;;;;;;4.92;62.40;99610.59;6067706;29;20231;-67
2020/12/05 09:06:06;;;;;;;36.90;30.70;;;;;;;4.49;63.51;99612.50;6070813;29;20823;-66
2020/12/05 09:09:30;;;;;;;36.53;30.83;;;;;;;4.34;63.64;99628.88;6077355;29;20241;-67
2020/12/05 09:12:51;;;;;;;40.57;32.30;;;;;;;4.45;63.58;99650.31;6065323;29;20532;-65
2020/12/05 09:16:11;;;;;;;38.77;30.73;;;;;;;4.29;63.86;99661.53;6079051;29;20229;-66
2020/12/05 09:19:32;;;;;;;36.17;29.23;;;;;;;4.65;63.49;99677.75;6080083;29;20631;-66
2020/12/05 09:22:54;;;;;;;37.43;30.10;;;;;;;4.47;63.47;99661.47;6066782;29;20236;-67
2020/12/05 09:26:15;;;;;;;36.73;30.50;;;;;;;4.59;62.86;99658.00;6070466;29;20245;-67
2020/12/05 09:29:35;;;;;;;36.97;29.77;;;;;;;4.63;63.34;99672.59;6068301;29;20245;-66
2020/12/05 09:32:55;;;;;;;38.53;31.47;;;;;;;4.47;63.71;99676.94;6076231;29;20248;-67
2020/12/05 09:36:16;;;;;;;38.47;32.70;;;;;;;4.33;63.83;99669.25;6065599;29;20233;-66
2020/12/05 09:39:37;;;;;;;42.70;30.17;;;;;;;4.43;63.49;99690.72;6068500;29;20241;-66
2020/12/05 09:42:59;;;;;;;40.93;31.40;;;;;;;4.64;62.66;99697.53;6056677;29;20702;-66
2020/12/05 09:46:19;;;;;;;37.47;30.47;;;;;;;4.57;62.83;99716.47;6060663;29;20249;-50
2020/12/05 09:49:40;;;;;;;40.00;30.70;;;;;;;4.58;63.53;99719.94;6066071;29;20253;-50
2020/12/05 09:53:01;;;;;;;43.47;33.10;;;;;;;4.56;63.25;99724.22;6060813;29;20950;-53
2020/12/05 09:56:21;;;;;;;39.13;31.80;;;;;;;4.73;63.33;99714.72;6069585;29;20817;-47
2020/12/05 09:59:43;;;;;;;38.07;30.60;;;;;;;4.67;62.93;99722.47;6068210;29;20722;-48
2020/12/05 10:03:04;;;;;;;38.97;30.80;;;;;;;4.58;63.42;99712.19;6058003;29;20240;-48
2020/12/05 10:06:24;;;;;;;34.43;28.43;;;;;;;4.65;63.17;99701.84;6073634;29;20280;-49
2020/12/05 10:09:44;;;;;;;36.10;31.50;;;;;;;4.74;62.54;99699.22;6080819;29;20245;-49
2020/12/05 10:13:05;;;;;;;36.90;30.17;;;;;;;4.64;63.22;99702.69;6072384;29;20249;-49
2020/12/05 10:16:26;;;;;;;37.87;29.97;;;;;;;4.53;63.41;99728.50;6064991;29;20336;-50
2020/12/05 10:19:47;;;;;;;40.30;32.83;;;;;;;4.58;63.24;99717.34;6071648;29;20554;-47
2020/12/05 10:23:07;;;;;;;39.07;32.90;;;;;;;4.52;63.80;99718.22;6063612;29;20920;-48
2020/12/05 10:26:27;;;;;;;38.37;31.20;;;;;;;4.67;63.41;99733.66;6064422;29;20245;-51
2020/12/05 10:29:48;;;;;;;35.97;28.83;;;;;;;4.85;62.94;99719.84;6071192;29;20244;-50
2020/12/05 10:33:09;;;;;;;41.17;32.10;;;;;;;4.68;62.78;99739.66;6075330;29;20268;-47
2020/12/05 10:36:29;;;;;;;36.93;28.40;;;;;;;4.65;63.26;99752.56;6065570;29;20233;-48
2020/12/05 10:39:50;;;;;;;42.53;31.50;;;;;;;4.87;62.53;99737.91;6068884;29;20249;-53
2020/12/05 10:43:11;;;;;;;37.27;29.73;;;;;;;4.99;62.57;99740.44;6070742;29;20237;-49
2020/12/05 10:46:31;;;;;;;36.77;29.30;;;;;;;4.83;62.61;99726.72;6074205;29;20531;-52
2020/12/05 10:49:52;;;;;;;41.63;32.60;;;;;;;4.93;62.90;99715.50;6076611;29;20308;-53
2020/12/05 10:53:13;;;;;;;36.80;30.93;;;;;;;4.95;62.28;99694.00;6071645;29;20229;-51
2020/12/05 10:56:33;;;;;;;34.03;29.77;;;;;;;5.01;62.09;99719.78;6071564;29;20300;-47
2020/12/05 10:59:54;;;;;;;33.30;29.23;;;;;;;5.11;61.92;99718.88;6069364;29;20229;-51
2020/12/05 11:03:14;;;;;;;35.60;30.13;;;;;;;5.09;62.38;99721.47;6064304;29;20265;-51
2020/12/05 11:06:36;;;;;;;38.83;30.00;;;;;;;5.08;63.01;99718.91;6075573;29;20241;-50
2020/12/05 11:09:56;;;;;;;32.87;28.87;;;;;;;5.41;61.64;99720.47;6083950;29;20233;-50
2020/12/05 11:13:16;;;;;;;37.77;29.53;;;;;;;5.32;62.09;99731.69;6074278;29;20596;-48
2020/12/05 11:16:37;;;;;;;34.73;29.67;;;;;;;5.42;61.31;99729.06;6075481;29;20233;-46
2020/12/05 11:19:57;;;;;;;40.17;31.07;;;;;;;5.43;61.57;99738.50;6074121;29;20333;-49
2020/12/05 11:23:18;;;;;;;32.37;26.43;;;;;;;5.24;62.20;99746.34;6081426;29;20321;-48
2020/12/05 11:26:39;;;;;;;43.80;29.63;;;;;;;5.50;61.65;99753.97;6084413;29;20233;-50
2020/12/05 11:29:59;;;;;;;38.67;30.20;;;;;;;5.38;62.04;99754.03;6063543;29;20229;-49
2020/12/05 11:33:20;;;;;;;36.33;28.37;;;;;;;5.44;61.90;99758.31;6075202;29;20507;-49
2020/12/05 11:36:42;;;;;;;32.07;26.40;;;;;;;5.63;61.76;99744.44;6071355;29;20600;-49
2020/12/05 11:40:03;;;;;;;34.63;28.47;;;;;;;5.69;61.56;99759.88;6063932;29;20233;-49
2020/12/05 11:43:24;;;;;;;34.20;28.47;;;;;;;5.88;60.75;99749.44;6068028;29;20229;-51
2020/12/05 11:46:44;;;;;;;31.83;28.43;;;;;;;5.88;60.90;99759.78;6059038;29;20237;-46
2020/12/05 11:50:06;;;;;;;31.67;26.60;;;;;;;5.92;61.08;99774.41;6070515;29;20229;-48
2020/12/05 11:53:26;;;;;;;30.00;26.27;;;;;;;6.02;60.40;99793.31;6069409;29;20252;-47
2020/12/05 11:56:47;;;;;;;32.87;27.80;;;;;;;6.13;60.17;99786.34;6070636;29;20793;-50
2020/12/05 12:00:08;;;;;;;33.40;26.47;;;;;;;5.63;61.92;99798.66;6072367;29;20990;-50
2020/12/05 12:03:33;;;;;;;32.77;28.27;;;;;;;5.67;62.03;99815.88;6066735;29;20229;-51
2020/12/05 12:06:53;;;;;;;31.00;25.80;;;;;;;5.60;62.18;99827.09;6080968;29;20233;-50
2020/12/05 12:10:14;;;;;;;31.30;27.00;;;;;;;5.71;62.00;99825.31;6071615;29;20244;-50
2020/12/05 12:13:34;;;;;;;30.27;26.27;;;;;;;5.61;62.55;99823.66;6066500;29;20823;-49
2020/12/05 12:16:55;;;;;;;33.17;26.13;;;;;;;5.72;62.37;99814.13;6059510;29;20363;-48
2020/12/05 12:20:15;;;;;;;27.73;24.77;;;;;;;5.65;63.23;99820.19;6061404;29;20551;-51
2020/12/05 12:23:36;;;;;;;32.17;25.37;;;;;;;5.69;63.50;99827.06;6054754;29;20261;-52
2020/12/05 12:26:57;;;;;;;27.97;24.10;;;;;;;5.71;63.50;99827.06;6058621;29;20249;-52
2020/12/05 12:30:18;;;;;;;27.27;23.63;;;;;;;6.10;62.50;99807.03;6064143;29;20237;-52
2020/12/05 12:33:39;;;;;;;30.20;24.57;;;;;;;6.05;62.28;99799.31;6059458;29;20519;-50
2020/12/05 12:37:03;;;;;;;29.50;23.73;;;;;;;5.85;62.74;99789.06;6060887;29;20233;-46
2020/12/05 12:40:23;;;;;;;26.33;23.63;;;;;;;6.00;62.85;99811.41;6065685;29;20233;-46
2020/12/05 12:43:45;;;;;;;25.77;22.53;;;;;;;5.80;63.46;99808.91;6064419;29;20253;-49
2020/12/05 12:47:36;;;;;;;23.53;21.03;;;;;;;5.85;63.44;99790.78;6064251;29;20252;-49
2020/12/05 12:50:56;;;;;;;26.03;22.00;;;;;;;6.09;62.95;99803.59;6062710;29;20236;-47
2020/12/05 12:54:16;;;;;;;24.17;20.13;;;;;;;6.08;63.88;99819.97;6066223;29;20245;-52
2020/12/05 12:57:37;;;;;;;21.70;19.43;;;;;;;5.92;64.44;99839.84;6065017;29;20236;-50
2020/12/05 13:00:58;;;;;;;24.70;19.03;;;;;;;6.11;64.17;99858.72;6064179;29;20976;-50
2020/12/05 13:04:19;;;;;;;22.67;20.20;;;;;;;6.03;64.41;99873.44;6062093;29;20257;-52
2020/12/05 13:07:39;;;;;;;23.77;17.57;;;;;;;6.23;63.95;99880.22;6066458;29;20241;-51
2020/12/05 13:11:01;;;;;;;20.43;18.13;;;;;;;6.08;64.50;99875.97;6065655;29;20264;-46
2020/12/05 13:14:21;;;;;;;20.03;17.93;;;;;;;5.81;65.95;99890.72;6065682;29;21035;-49
2020/12/05 13:17:42;;;;;;;20.63;17.33;;;;;;;5.67;66.90;99923.50;6064536;29;20241;-47
2020/12/05 13:21:04;;;;;;;18.20;16.13;;;;;;;5.97;65.90;99926.88;6060380;29;20245;-50
2020/12/05 13:24:25;;;;;;;21.40;16.50;;;;;;;6.25;64.77;99923.28;6060983;29;20551;-52
2020/12/05 13:27:45;;;;;;;20.03;17.77;;;;;;;6.49;64.05;99922.28;6062272;29;20241;-48
2020/12/05 13:31:05;;;;;;;23.37;17.43;;;;;;;6.45;63.87;99933.50;6063248;29;20237;-49
2020/12/05 13:34:26;;;;;;;21.83;18.53;;;;;;;6.26;64.81;99943.13;6068452;29;20257;-51
2020/12/05 13:37:47;;;;;;;21.73;18.23;;;;;;;6.49;64.21;99965.38;6066664;29;20229;-48
2020/12/05 13:41:07;;;;;;;24.13;21.43;;;;;;;6.16;64.32;99982.78;6068577;29;20869;-47
2020/12/05 13:44:28;;;;;;;26.53;20.00;;;;;;;6.34;63.66;99965.47;6065760;29;20241;-50
2020/12/05 13:47:48;;;;;;;22.77;18.17;;;;;;;6.57;63.09;99963.63;6068585;29;20241;-52
2020/12/05 13:51:09;;;;;;;26.60;20.97;;;;;;;6.42;63.31;99967.16;6067713;29;20249;-52
2020/12/05 13:54:30;;;;;;;23.70;20.07;;;;;;;6.49;63.45;99963.69;6068202;29;20241;-49
2020/12/05 13:57:50;;;;;;;22.03;19.73;;;;;;;6.57;63.15;99983.44;6067276;29;20541;-52
2020/12/05 14:01:10;;;;;;;22.73;18.60;;;;;;;6.49;63.56;99975.72;6066707;29;20324;-51
2020/12/05 14:04:31;;;;;;;24.73;19.57;;;;;;;6.41;63.40;99986.13;6068808;29;20241;-50
2020/12/05 14:07:51;;;;;;;22.73;20.20;;;;;;;6.37;63.79;99992.19;6067602;29;20233;-53
2020/12/05 14:11:12;;;;;;;24.47;20.90;;;;;;;6.39;63.67;99995.59;6054670;29;20237;-50
2020/12/05 14:14:33;;;;;;;20.27;18.00;;;;;;;6.45;63.78;100000.75;6068900;29;20817;-53
2020/12/05 14:17:53;;;;;;;24.37;19.10;;;;;;;6.47;63.56;100009.34;6056353;29;20783;-54
2020/12/05 14:21:13;;;;;;;24.00;19.90;;;;;;;6.40;64.11;100009.44;6068098;29;20428;-51
2020/12/05 14:24:33;;;;;;;23.60;19.30;;;;;;;6.30;64.04;100017.22;6075131;29;20260;-53
2020/12/05 14:27:55;;;;;;;27.07;22.97;;;;;;;6.39;63.75;100018.88;6076945;29;20225;-52
2020/12/05 14:31:17;;;;;;;21.40;19.10;;;;;;;6.23;64.24;100043.09;6075493;29;20323;-51
2020/12/05 14:34:38;;;;;;;25.40;21.40;;;;;;;6.23;64.36;100045.69;6068995;29;20229;-51
2020/12/05 14:37:58;;;;;;;25.97;20.93;;;;;;;6.30;63.76;100068.06;6076002;29;20237;-49
2020/12/05 14:41:21;;;;;;;25.87;21.67;;;;;;;6.17;64.88;100076.75;6073911;29;20245;-49
2020/12/05 14:44:43;;;;;;;21.33;17.83;;;;;;;5.97;65.22;100085.41;6060421;29;20238;-49
2020/12/05 14:48:08;;;;;;;22.90;20.30;;;;;;;6.02;64.83;100104.34;6068626;29;20258;-54
2020/12/05 14:51:28;;;;;;;21.60;19.30;;;;;;;5.86;65.72;100106.06;6069604;29;20248;-51
2020/12/05 14:54:48;;;;;;;21.17;18.43;;;;;;;5.94;65.70;100102.59;6063045;29;20571;-51
2020/12/05 14:58:12;;;;;;;24.93;18.07;;;;;;;5.66;66.47;100126.75;6075787;29;20240;-54
2020/12/05 15:01:34;;;;;;;22.95;20.75;;;;;;;6.02;65.53;100132.75;6074693;29;21251;-52
2020/12/05 15:04:55;;;;;;;19.97;17.97;;;;;;;6.03;65.12;100126.75;6071473;29;20233;-50
2020/12/05 15:08:16;;;;;;;21.27;16.97;;;;;;;6.02;65.18;100135.34;6072232;29;20520;-49
2020/12/05 15:11:36;;;;;;;19.23;16.87;;;;;;;5.95;65.88;100145.66;6059230;29;20329;-52
2020/12/05 15:14:57;;;;;;;20.67;18.23;;;;;;;6.08;65.50;100155.16;6070192;29;20517;-52
2020/12/05 15:18:20;;;;;;;20.83;17.90;;;;;;;6.19;64.93;100156.00;6072702;29;20241;-51
2020/12/05 15:21:40;;;;;;;22.63;18.60;;;;;;;6.20;65.04;100159.44;6072384;29;20514;-51
2020/12/05 15:25:00;;;;;;;20.93;18.67;;;;;;;6.26;65.02;100159.44;6065596;29;20237;-50
2020/12/05 15:28:21;;;;;;;20.73;18.30;;;;;;;6.11;65.68;100150.00;6070568;29;20242;-50
2020/12/05 15:31:42;;;;;;;22.90;17.87;;;;;;;6.40;64.30;100149.09;6074833;29;20233;-52
2020/12/05 15:35:03;;;;;;;24.97;20.10;;;;;;;6.57;64.06;100149.00;6074009;29;20786;-49
2020/12/05 15:38:23;;;;;;;24.63;21.93;;;;;;;6.68;63.28;100152.44;6069426;29;20501;-49